Terminal Aerodrome Forecast
Issued by NWS Wilmington, OH

Current Version | Previous Version | Text Only | Print | Product List | Glossary Off
Versions: 1 2 3 4 5 6 7 8 9 10 11 12 13 14 15 16 17 18 19 20 21

111
FTUS41 KILN 152019 AAA
TAFILN
TAF AMD
KILN 152019Z 1520/1618 21012KT 3SM -SHRA OVC015
     FM152300 22013KT 5SM BR VCSH OVC008
     FM160300 26013KT P6SM OVC005
     FM160800 27013KT P6SM BKN015=

USA.gov is the U.S. government's official web portal to all federal, state and local government web resources and services.